桃園國際機場 - 塔臺(一站)

METAR RCTP 040100Z 07013KT 9999 FEW006 BKN015 BKN030 18/16 Q1020 NOSIG RMK A3014=

站台狀態:Online
最後更新:2020-04-04 09:30:02